sensor_id;sensor_type;location;lat;lon;timestamp;P1;durP1;ratioP1;P2;durP2;ratioP2
140;SDS011;65;48.778;9.160;2023-07-16T00:00:59;8.82;;;4.22;;
140;SDS011;65;48.778;9.160;2023-07-16T00:03:45;6.90;;;4.10;;
140;SDS011;65;48.778;9.160;2023-07-16T00:06:30;6.35;;;4.00;;
140;SDS011;65;48.778;9.160;2023-07-16T00:09:16;6.97;;;4.30;;
140;SDS011;65;48.778;9.160;2023-07-16T00:12:02;8.05;;;4.15;;
140;SDS011;65;48.778;9.160;2023-07-16T00:14:48;7.18;;;4.10;;
140;SDS011;65;48.778;9.160;2023-07-16T00:17:34;9.93;;;4.88;;
140;SDS011;65;48.778;9.160;2023-07-16T00:20:20;8.30;;;3.90;;
140;SDS011;65;48.778;9.160;2023-07-16T00:23:08;8.25;;;3.85;;
140;SDS011;65;48.778;9.160;2023-07-16T00:25:54;6.63;;;3.75;;
140;SDS011;65;48.778;9.160;2023-07-16T00:28:40;5.53;;;3.60;;
140;SDS011;65;48.778;9.160;2023-07-16T00:31:25;6.40;;;3.63;;
140;SDS011;65;48.778;9.160;2023-07-16T00:34:11;6.00;;;3.42;;
140;SDS011;65;48.778;9.160;2023-07-16T00:36:58;4.85;;;2.55;;
140;SDS011;65;48.778;9.160;2023-07-16T00:39:47;5.68;;;3.20;;
140;SDS011;65;48.778;9.160;2023-07-16T00:42:32;5.70;;;2.80;;
140;SDS011;65;48.778;9.160;2023-07-16T00:45:18;4.07;;;2.50;;
140;SDS011;65;48.778;9.160;2023-07-16T00:48:04;3.85;;;2.47;;
140;SDS011;65;48.778;9.160;2023-07-16T00:50:52;5.97;;;2.65;;
140;SDS011;65;48.778;9.160;2023-07-16T00:53:39;5.05;;;2.42;;
140;SDS011;65;48.778;9.160;2023-07-16T00:56:27;3.75;;;2.40;;
140;SDS011;65;48.778;9.160;2023-07-16T00:59:13;5.07;;;2.70;;
140;SDS011;65;48.778;9.160;2023-07-16T01:01:59;4.57;;;2.67;;
140;SDS011;65;48.778;9.160;2023-07-16T01:07:57;4.82;;;3.05;;
140;SDS011;65;48.778;9.160;2023-07-16T01:10:47;3.15;;;2.25;;
140;SDS011;65;48.778;9.160;2023-07-16T01:13:34;3.53;;;2.35;;
140;SDS011;65;48.778;9.160;2023-07-16T01:16:21;5.85;;;2.50;;
140;SDS011;65;48.778;9.160;2023-07-16T01:19:09;4.70;;;2.85;;
140;SDS011;65;48.778;9.160;2023-07-16T01:22:10;4.20;;;2.53;;
140;SDS011;65;48.778;9.160;2023-07-16T01:28:22;3.60;;;2.17;;
140;SDS011;65;48.778;9.160;2023-07-16T01:31:21;2.72;;;2.10;;
140;SDS011;65;48.778;9.160;2023-07-16T01:34:08;5.80;;;2.30;;
140;SDS011;65;48.778;9.160;2023-07-16T01:36:56;3.15;;;1.80;;
140;SDS011;65;48.778;9.160;2023-07-16T01:39:41;4.03;;;2.42;;
140;SDS011;65;48.778;9.160;2023-07-16T01:42:27;4.53;;;2.30;;
140;SDS011;65;48.778;9.160;2023-07-16T01:45:14;3.55;;;2.10;;
140;SDS011;65;48.778;9.160;2023-07-16T01:50:54;3.97;;;1.90;;
140;SDS011;65;48.778;9.160;2023-07-16T01:53:40;3.42;;;1.95;;
140;SDS011;65;48.778;9.160;2023-07-16T01:56:26;4.43;;;2.00;;
140;SDS011;65;48.778;9.160;2023-07-16T01:59:12;3.08;;;2.05;;
140;SDS011;65;48.778;9.160;2023-07-16T02:01:57;2.55;;;1.70;;
140;SDS011;65;48.778;9.160;2023-07-16T02:04:43;2.83;;;1.98;;
140;SDS011;65;48.778;9.160;2023-07-16T02:07:29;3.03;;;2.00;;
140;SDS011;65;48.778;9.160;2023-07-16T02:10:14;1.95;;;1.67;;
140;SDS011;65;48.778;9.160;2023-07-16T02:13:00;3.22;;;2.03;;
140;SDS011;65;48.778;9.160;2023-07-16T02:15:46;4.68;;;2.30;;
140;SDS011;65;48.778;9.160;2023-07-16T02:18:32;6.88;;;2.08;;
140;SDS011;65;48.778;9.160;2023-07-16T02:21:18;2.83;;;2.00;;
140;SDS011;65;48.778;9.160;2023-07-16T02:24:03;3.35;;;1.95;;
140;SDS011;65;48.778;9.160;2023-07-16T02:26:49;3.03;;;1.90;;
140;SDS011;65;48.778;9.160;2023-07-16T02:29:35;4.82;;;2.10;;
140;SDS011;65;48.778;9.160;2023-07-16T02:32:21;3.72;;;1.95;;
140;SDS011;65;48.778;9.160;2023-07-16T02:35:07;3.80;;;2.00;;
140;SDS011;65;48.778;9.160;2023-07-16T02:37:53;7.45;;;2.28;;
140;SDS011;65;48.778;9.160;2023-07-16T02:40:42;2.88;;;1.80;;
140;SDS011;65;48.778;9.160;2023-07-16T02:43:32;5.00;;;2.20;;
140;SDS011;65;48.778;9.160;2023-07-16T02:46:18;4.63;;;1.83;;
140;SDS011;65;48.778;9.160;2023-07-16T02:49:04;4.55;;;2.08;;
140;SDS011;65;48.778;9.160;2023-07-16T02:51:50;4.53;;;1.80;;
140;SDS011;65;48.778;9.160;2023-07-16T02:54:36;5.20;;;1.65;;
140;SDS011;65;48.778;9.160;2023-07-16T02:57:22;2.53;;;1.65;;
140;SDS011;65;48.778;9.160;2023-07-16T03:00:08;2.83;;;1.63;;
140;SDS011;65;48.778;9.160;2023-07-16T03:02:54;3.45;;;2.08;;
140;SDS011;65;48.778;9.160;2023-07-16T03:05:40;2.78;;;1.80;;
140;SDS011;65;48.778;9.160;2023-07-16T03:08:26;3.97;;;1.83;;
140;SDS011;65;48.778;9.160;2023-07-16T03:11:15;3.00;;;1.98;;
140;SDS011;65;48.778;9.160;2023-07-16T03:14:00;3.28;;;2.00;;
140;SDS011;65;48.778;9.160;2023-07-16T03:16:46;2.92;;;1.85;;
140;SDS011;65;48.778;9.160;2023-07-16T03:19:32;4.85;;;2.03;;
140;SDS011;65;48.778;9.160;2023-07-16T03:22:18;2.50;;;1.90;;
140;SDS011;65;48.778;9.160;2023-07-16T03:25:04;7.03;;;2.00;;
140;SDS011;65;48.778;9.160;2023-07-16T03:27:50;3.28;;;1.80;;
140;SDS011;65;48.778;9.160;2023-07-16T03:30:36;4.72;;;2.13;;
140;SDS011;65;48.778;9.160;2023-07-16T03:33:22;5.78;;;2.33;;
140;SDS011;65;48.778;9.160;2023-07-16T03:36:08;5.80;;;2.25;;
140;SDS011;65;48.778;9.160;2023-07-16T03:38:54;5.32;;;2.10;;
140;SDS011;65;48.778;9.160;2023-07-16T03:41:39;3.95;;;2.10;;
140;SDS011;65;48.778;9.160;2023-07-16T03:44:25;4.82;;;1.90;;
140;SDS011;65;48.778;9.160;2023-07-16T03:47:11;3.40;;;2.15;;
140;SDS011;65;48.778;9.160;2023-07-16T03:49:57;3.60;;;1.90;;
140;SDS011;65;48.778;9.160;2023-07-16T03:52:43;4.00;;;2.15;;
140;SDS011;65;48.778;9.160;2023-07-16T03:55:29;3.60;;;2.10;;
140;SDS011;65;48.778;9.160;2023-07-16T03:58:15;3.80;;;1.98;;
140;SDS011;65;48.778;9.160;2023-07-16T04:01:01;5.90;;;2.20;;
140;SDS011;65;48.778;9.160;2023-07-16T04:03:46;4.90;;;1.80;;
140;SDS011;65;48.778;9.160;2023-07-16T04:06:32;4.28;;;2.20;;
140;SDS011;65;48.778;9.160;2023-07-16T04:09:18;5.10;;;2.05;;
140;SDS011;65;48.778;9.160;2023-07-16T04:12:04;5.13;;;2.47;;
140;SDS011;65;48.778;9.160;2023-07-16T04:14:54;5.65;;;2.30;;
140;SDS011;65;48.778;9.160;2023-07-16T04:17:41;3.28;;;1.90;;
140;SDS011;65;48.778;9.160;2023-07-16T04:20:27;4.90;;;2.35;;
140;SDS011;65;48.778;9.160;2023-07-16T04:23:14;5.75;;;2.50;;
140;SDS011;65;48.778;9.160;2023-07-16T04:26:00;5.07;;;2.10;;
140;SDS011;65;48.778;9.160;2023-07-16T04:28:45;7.35;;;2.28;;
140;SDS011;65;48.778;9.160;2023-07-16T04:31:31;3.45;;;2.00;;
140;SDS011;65;48.778;9.160;2023-07-16T04:34:17;6.82;;;2.83;;
140;SDS011;65;48.778;9.160;2023-07-16T04:37:02;5.45;;;2.30;;
140;SDS011;65;48.778;9.160;2023-07-16T04:39:48;5.53;;;2.50;;
140;SDS011;65;48.778;9.160;2023-07-16T04:42:35;4.25;;;1.90;;
140;SDS011;65;48.778;9.160;2023-07-16T04:45:21;8.40;;;2.33;;
140;SDS011;65;48.778;9.160;2023-07-16T04:48:07;4.18;;;2.33;;
140;SDS011;65;48.778;9.160;2023-07-16T04:50:52;3.72;;;2.05;;
140;SDS011;65;48.778;9.160;2023-07-16T04:53:38;2.83;;;1.88;;
140;SDS011;65;48.778;9.160;2023-07-16T04:56:24;6.35;;;2.25;;
140;SDS011;65;48.778;9.160;2023-07-16T04:59:10;2.55;;;2.00;;
140;SDS011;65;48.778;9.160;2023-07-16T05:01:55;3.22;;;1.90;;
140;SDS011;65;48.778;9.160;2023-07-16T05:04:41;5.20;;;2.30;;
140;SDS011;65;48.778;9.160;2023-07-16T05:07:29;4.90;;;1.90;;
140;SDS011;65;48.778;9.160;2023-07-16T05:10:14;7.00;;;2.17;;
140;SDS011;65;48.778;9.160;2023-07-16T05:13:00;4.10;;;2.30;;
140;SDS011;65;48.778;9.160;2023-07-16T05:15:48;4.28;;;2.28;;
140;SDS011;65;48.778;9.160;2023-07-16T05:18:34;2.88;;;1.80;;
140;SDS011;65;48.778;9.160;2023-07-16T05:21:20;5.30;;;2.10;;
140;SDS011;65;48.778;9.160;2023-07-16T05:24:06;3.03;;;1.90;;
140;SDS011;65;48.778;9.160;2023-07-16T05:26:52;6.88;;;2.25;;
140;SDS011;65;48.778;9.160;2023-07-16T05:29:39;3.63;;;1.85;;
140;SDS011;65;48.778;9.160;2023-07-16T05:32:25;5.53;;;2.08;;
140;SDS011;65;48.778;9.160;2023-07-16T05:35:11;3.72;;;1.98;;
140;SDS011;65;48.778;9.160;2023-07-16T05:37:56;4.72;;;2.10;;
140;SDS011;65;48.778;9.160;2023-07-16T05:40:42;4.90;;;2.03;;
140;SDS011;65;48.778;9.160;2023-07-16T05:43:28;4.43;;;2.10;;
140;SDS011;65;48.778;9.160;2023-07-16T05:46:23;4.57;;;2.05;;
140;SDS011;65;48.778;9.160;2023-07-16T05:49:08;6.32;;;2.20;;
140;SDS011;65;48.778;9.160;2023-07-16T05:51:54;5.13;;;2.03;;
140;SDS011;65;48.778;9.160;2023-07-16T05:54:42;10.93;;;2.20;;
140;SDS011;65;48.778;9.160;2023-07-16T05:57:29;6.05;;;2.22;;
140;SDS011;65;48.778;9.160;2023-07-16T06:00:14;4.03;;;1.80;;
140;SDS011;65;48.778;9.160;2023-07-16T06:03:02;7.10;;;1.83;;
140;SDS011;65;48.778;9.160;2023-07-16T06:05:48;5.43;;;1.90;;
140;SDS011;65;48.778;9.160;2023-07-16T06:08:34;5.35;;;2.25;;
140;SDS011;65;48.778;9.160;2023-07-16T06:11:19;5.53;;;1.77;;
140;SDS011;65;48.778;9.160;2023-07-16T06:14:06;5.88;;;1.83;;
140;SDS011;65;48.778;9.160;2023-07-16T06:16:51;3.55;;;1.95;;
140;SDS011;65;48.778;9.160;2023-07-16T06:19:38;7.20;;;2.38;;
140;SDS011;65;48.778;9.160;2023-07-16T06:22:23;5.72;;;2.05;;
140;SDS011;65;48.778;9.160;2023-07-16T06:25:09;5.15;;;2.10;;
140;SDS011;65;48.778;9.160;2023-07-16T06:27:56;5.28;;;2.08;;
140;SDS011;65;48.778;9.160;2023-07-16T06:30:41;6.30;;;2.20;;
140;SDS011;65;48.778;9.160;2023-07-16T06:33:30;3.90;;;2.10;;
140;SDS011;65;48.778;9.160;2023-07-16T06:36:15;5.22;;;1.88;;
140;SDS011;65;48.778;9.160;2023-07-16T06:39:01;7.00;;;2.50;;
140;SDS011;65;48.778;9.160;2023-07-16T06:41:47;4.35;;;2.08;;
140;SDS011;65;48.778;9.160;2023-07-16T06:44:32;5.22;;;2.03;;
140;SDS011;65;48.778;9.160;2023-07-16T06:47:18;4.28;;;2.00;;
140;SDS011;65;48.778;9.160;2023-07-16T06:50:04;4.80;;;2.20;;
140;SDS011;65;48.778;9.160;2023-07-16T06:52:50;7.85;;;2.10;;
140;SDS011;65;48.778;9.160;2023-07-16T06:55:36;5.13;;;2.15;;
140;SDS011;65;48.778;9.160;2023-07-16T06:58:24;12.05;;;2.40;;
140;SDS011;65;48.778;9.160;2023-07-16T07:01:17;4.45;;;2.08;;
140;SDS011;65;48.778;9.160;2023-07-16T07:04:03;3.17;;;1.70;;
140;SDS011;65;48.778;9.160;2023-07-16T07:06:48;8.43;;;2.08;;
140;SDS011;65;48.778;9.160;2023-07-16T07:09:34;6.80;;;2.30;;
140;SDS011;65;48.778;9.160;2023-07-16T07:12:20;4.25;;;1.92;;
140;SDS011;65;48.778;9.160;2023-07-16T07:15:06;4.40;;;1.95;;
140;SDS011;65;48.778;9.160;2023-07-16T07:17:52;5.43;;;2.08;;
140;SDS011;65;48.778;9.160;2023-07-16T07:20:39;7.00;;;1.80;;
140;SDS011;65;48.778;9.160;2023-07-16T07:23:25;4.57;;;2.17;;
140;SDS011;65;48.778;9.160;2023-07-16T07:26:11;5.47;;;2.20;;
140;SDS011;65;48.778;9.160;2023-07-16T07:28:56;3.42;;;1.70;;
140;SDS011;65;48.778;9.160;2023-07-16T07:31:42;5.10;;;1.83;;
140;SDS011;65;48.778;9.160;2023-07-16T07:34:29;5.78;;;1.92;;
140;SDS011;65;48.778;9.160;2023-07-16T07:37:15;5.35;;;1.95;;
140;SDS011;65;48.778;9.160;2023-07-16T07:40:00;4.22;;;1.83;;
140;SDS011;65;48.778;9.160;2023-07-16T07:42:48;4.68;;;1.75;;
140;SDS011;65;48.778;9.160;2023-07-16T07:45:33;7.07;;;2.10;;
140;SDS011;65;48.778;9.160;2023-07-16T07:48:19;6.15;;;1.90;;
140;SDS011;65;48.778;9.160;2023-07-16T07:51:06;6.22;;;2.38;;
140;SDS011;65;48.778;9.160;2023-07-16T07:53:52;4.78;;;1.80;;
140;SDS011;65;48.778;9.160;2023-07-16T07:56:38;4.43;;;2.10;;
140;SDS011;65;48.778;9.160;2023-07-16T07:59:24;5.93;;;2.50;;
140;SDS011;65;48.778;9.160;2023-07-16T08:02:10;7.07;;;2.20;;
140;SDS011;65;48.778;9.160;2023-07-16T08:04:55;7.10;;;2.30;;
140;SDS011;65;48.778;9.160;2023-07-16T08:07:41;4.55;;;1.83;;
140;SDS011;65;48.778;9.160;2023-07-16T08:10:27;5.20;;;1.95;;
140;SDS011;65;48.778;9.160;2023-07-16T08:13:12;4.10;;;1.95;;
140;SDS011;65;48.778;9.160;2023-07-16T08:15:58;6.13;;;2.05;;
140;SDS011;65;48.778;9.160;2023-07-16T08:18:44;5.68;;;1.88;;
140;SDS011;65;48.778;9.160;2023-07-16T08:21:30;7.03;;;2.22;;
140;SDS011;65;48.778;9.160;2023-07-16T08:24:15;5.10;;;1.80;;
140;SDS011;65;48.778;9.160;2023-07-16T08:27:01;4.50;;;2.10;;
140;SDS011;65;48.778;9.160;2023-07-16T08:29:47;6.03;;;2.17;;
140;SDS011;65;48.778;9.160;2023-07-16T08:32:33;5.30;;;2.30;;
140;SDS011;65;48.778;9.160;2023-07-16T08:35:18;6.43;;;2.10;;
140;SDS011;65;48.778;9.160;2023-07-16T08:38:05;6.38;;;1.90;;
140;SDS011;65;48.778;9.160;2023-07-16T08:40:54;4.57;;;2.08;;
140;SDS011;65;48.778;9.160;2023-07-16T08:43:40;5.55;;;2.10;;
140;SDS011;65;48.778;9.160;2023-07-16T08:46:27;4.28;;;1.95;;
140;SDS011;65;48.778;9.160;2023-07-16T08:49:12;4.53;;;1.90;;
140;SDS011;65;48.778;9.160;2023-07-16T08:51:58;5.53;;;1.85;;
140;SDS011;65;48.778;9.160;2023-07-16T08:54:50;5.85;;;2.22;;
140;SDS011;65;48.778;9.160;2023-07-16T08:57:36;5.22;;;2.17;;
140;SDS011;65;48.778;9.160;2023-07-16T09:00:23;5.32;;;2.05;;
140;SDS011;65;48.778;9.160;2023-07-16T09:03:11;4.88;;;1.85;;
140;SDS011;65;48.778;9.160;2023-07-16T09:05:59;5.85;;;1.80;;
140;SDS011;65;48.778;9.160;2023-07-16T09:08:44;6.35;;;1.83;;
140;SDS011;65;48.778;9.160;2023-07-16T09:11:30;5.65;;;2.30;;
140;SDS011;65;48.778;9.160;2023-07-16T09:14:19;3.88;;;1.90;;
140;SDS011;65;48.778;9.160;2023-07-16T09:17:06;4.80;;;1.80;;
140;SDS011;65;48.778;9.160;2023-07-16T09:19:52;4.63;;;2.17;;
140;SDS011;65;48.778;9.160;2023-07-16T09:22:37;5.13;;;2.08;;
140;SDS011;65;48.778;9.160;2023-07-16T09:25:29;4.97;;;2.15;;
140;SDS011;65;48.778;9.160;2023-07-16T09:28:18;6.07;;;1.95;;
140;SDS011;65;48.778;9.160;2023-07-16T09:31:04;5.63;;;1.80;;
140;SDS011;65;48.778;9.160;2023-07-16T09:33:51;4.13;;;2.10;;
140;SDS011;65;48.778;9.160;2023-07-16T09:36:39;5.53;;;2.03;;
140;SDS011;65;48.778;9.160;2023-07-16T09:39:25;3.33;;;1.75;;
140;SDS011;65;48.778;9.160;2023-07-16T09:42:12;4.97;;;2.08;;
140;SDS011;65;48.778;9.160;2023-07-16T09:44:59;4.40;;;1.83;;
140;SDS011;65;48.778;9.160;2023-07-16T09:47:46;5.25;;;2.00;;
140;SDS011;65;48.778;9.160;2023-07-16T09:50:32;5.43;;;2.00;;
140;SDS011;65;48.778;9.160;2023-07-16T09:53:20;4.88;;;2.15;;
140;SDS011;65;48.778;9.160;2023-07-16T09:56:06;9.38;;;2.22;;
140;SDS011;65;48.778;9.160;2023-07-16T09:58:55;6.65;;;2.08;;
140;SDS011;65;48.778;9.160;2023-07-16T10:01:43;4.60;;;2.17;;
140;SDS011;65;48.778;9.160;2023-07-16T10:04:37;4.13;;;1.98;;
140;SDS011;65;48.778;9.160;2023-07-16T10:07:26;5.15;;;2.20;;
140;SDS011;65;48.778;9.160;2023-07-16T10:10:12;3.67;;;1.92;;
140;SDS011;65;48.778;9.160;2023-07-16T10:13:00;3.38;;;1.92;;
140;SDS011;65;48.778;9.160;2023-07-16T10:15:50;3.80;;;1.58;;
140;SDS011;65;48.778;9.160;2023-07-16T10:18:49;2.83;;;1.70;;
140;SDS011;65;48.778;9.160;2023-07-16T10:21:38;5.18;;;1.83;;
140;SDS011;65;48.778;9.160;2023-07-16T10:24:26;3.60;;;2.00;;
140;SDS011;65;48.778;9.160;2023-07-16T10:27:13;4.50;;;2.00;;
140;SDS011;65;48.778;9.160;2023-07-16T10:30:00;4.43;;;2.00;;
140;SDS011;65;48.778;9.160;2023-07-16T10:32:50;3.70;;;2.20;;
140;SDS011;65;48.778;9.160;2023-07-16T10:35:40;4.10;;;2.10;;
140;SDS011;65;48.778;9.160;2023-07-16T10:38:26;5.13;;;2.00;;
140;SDS011;65;48.778;9.160;2023-07-16T10:41:12;4.68;;;1.80;;
140;SDS011;65;48.778;9.160;2023-07-16T10:43:58;4.75;;;2.58;;
140;SDS011;65;48.778;9.160;2023-07-16T10:46:44;6.13;;;2.70;;
140;SDS011;65;48.778;9.160;2023-07-16T10:49:30;5.57;;;2.10;;
140;SDS011;65;48.778;9.160;2023-07-16T10:52:15;3.97;;;1.90;;
140;SDS011;65;48.778;9.160;2023-07-16T10:55:01;5.55;;;2.03;;
140;SDS011;65;48.778;9.160;2023-07-16T10:57:48;3.85;;;2.00;;
140;SDS011;65;48.778;9.160;2023-07-16T11:00:41;5.70;;;2.05;;
140;SDS011;65;48.778;9.160;2023-07-16T11:03:27;4.28;;;2.13;;
140;SDS011;65;48.778;9.160;2023-07-16T11:06:13;5.97;;;2.38;;
140;SDS011;65;48.778;9.160;2023-07-16T11:09:10;4.00;;;2.10;;
140;SDS011;65;48.778;9.160;2023-07-16T11:12:04;4.30;;;2.10;;
140;SDS011;65;48.778;9.160;2023-07-16T11:14:54;4.28;;;2.28;;
140;SDS011;65;48.778;9.160;2023-07-16T11:17:41;5.45;;;2.15;;
140;SDS011;65;48.778;9.160;2023-07-16T11:20:26;4.60;;;2.03;;
140;SDS011;65;48.778;9.160;2023-07-16T11:23:13;6.97;;;2.33;;
140;SDS011;65;48.778;9.160;2023-07-16T11:26:01;5.03;;;2.30;;
140;SDS011;65;48.778;9.160;2023-07-16T11:28:49;4.07;;;2.05;;
140;SDS011;65;48.778;9.160;2023-07-16T11:31:38;7.10;;;2.20;;
140;SDS011;65;48.778;9.160;2023-07-16T11:34:26;4.55;;;2.30;;
140;SDS011;65;48.778;9.160;2023-07-16T11:37:12;4.10;;;1.90;;
140;SDS011;65;48.778;9.160;2023-07-16T11:39:58;3.83;;;2.08;;
140;SDS011;65;48.778;9.160;2023-07-16T11:42:51;4.25;;;2.38;;
140;SDS011;65;48.778;9.160;2023-07-16T11:45:37;5.38;;;2.20;;
140;SDS011;65;48.778;9.160;2023-07-16T11:48:23;5.72;;;2.35;;
140;SDS011;65;48.778;9.160;2023-07-16T11:51:09;4.10;;;2.20;;
140;SDS011;65;48.778;9.160;2023-07-16T11:53:55;5.00;;;2.03;;
140;SDS011;65;48.778;9.160;2023-07-16T11:56:42;5.68;;;2.65;;
140;SDS011;65;48.778;9.160;2023-07-16T11:59:28;4.05;;;2.00;;
140;SDS011;65;48.778;9.160;2023-07-16T12:02:13;4.38;;;2.08;;
140;SDS011;65;48.778;9.160;2023-07-16T12:04:59;5.15;;;2.42;;
140;SDS011;65;48.778;9.160;2023-07-16T12:07:45;4.43;;;2.30;;
140;SDS011;65;48.778;9.160;2023-07-16T12:10:31;6.20;;;2.10;;
140;SDS011;65;48.778;9.160;2023-07-16T12:13:17;4.38;;;2.20;;
140;SDS011;65;48.778;9.160;2023-07-16T12:16:02;4.65;;;2.10;;
140;SDS011;65;48.778;9.160;2023-07-16T12:18:48;4.82;;;2.20;;
140;SDS011;65;48.778;9.160;2023-07-16T12:21:34;4.68;;;2.10;;
140;SDS011;65;48.778;9.160;2023-07-16T12:24:20;9.48;;;2.75;;
140;SDS011;65;48.778;9.160;2023-07-16T12:27:06;4.32;;;2.38;;
140;SDS011;65;48.778;9.160;2023-07-16T12:29:52;3.65;;;2.10;;
140;SDS011;65;48.778;9.160;2023-07-16T12:32:37;3.90;;;2.25;;
140;SDS011;65;48.778;9.160;2023-07-16T12:35:23;4.25;;;1.92;;
140;SDS011;65;48.778;9.160;2023-07-16T12:38:09;6.60;;;2.40;;
140;SDS011;65;48.778;9.160;2023-07-16T12:40:55;4.15;;;2.08;;
140;SDS011;65;48.778;9.160;2023-07-16T12:43:40;6.07;;;2.25;;
140;SDS011;65;48.778;9.160;2023-07-16T12:46:26;4.15;;;2.00;;
140;SDS011;65;48.778;9.160;2023-07-16T12:49:12;3.80;;;2.00;;
140;SDS011;65;48.778;9.160;2023-07-16T12:51:58;3.95;;;2.05;;
140;SDS011;65;48.778;9.160;2023-07-16T12:54:44;5.03;;;2.30;;
140;SDS011;65;48.778;9.160;2023-07-16T12:57:29;6.10;;;2.42;;
140;SDS011;65;48.778;9.160;2023-07-16T13:00:15;4.47;;;2.17;;
140;SDS011;65;48.778;9.160;2023-07-16T13:03:01;6.20;;;2.72;;
140;SDS011;65;48.778;9.160;2023-07-16T13:05:48;5.05;;;2.38;;
140;SDS011;65;48.778;9.160;2023-07-16T13:08:33;4.18;;;2.17;;
140;SDS011;65;48.778;9.160;2023-07-16T13:11:20;4.07;;;2.10;;
140;SDS011;65;48.778;9.160;2023-07-16T13:14:06;4.70;;;2.28;;
140;SDS011;65;48.778;9.160;2023-07-16T13:16:51;4.05;;;2.05;;
140;SDS011;65;48.778;9.160;2023-07-16T13:19:37;4.82;;;2.30;;
140;SDS011;65;48.778;9.160;2023-07-16T13:22:23;4.15;;;2.10;;
140;SDS011;65;48.778;9.160;2023-07-16T13:25:09;3.10;;;1.88;;
140;SDS011;65;48.778;9.160;2023-07-16T13:27:55;3.63;;;2.03;;
140;SDS011;65;48.778;9.160;2023-07-16T13:30:48;4.20;;;1.80;;
140;SDS011;65;48.778;9.160;2023-07-16T13:33:33;4.13;;;2.00;;
140;SDS011;65;48.778;9.160;2023-07-16T13:36:21;6.20;;;2.20;;
140;SDS011;65;48.778;9.160;2023-07-16T13:39:07;9.32;;;2.20;;
140;SDS011;65;48.778;9.160;2023-07-16T13:41:53;4.70;;;2.05;;
140;SDS011;65;48.778;9.160;2023-07-16T13:44:39;7.15;;;2.50;;
140;SDS011;65;48.778;9.160;2023-07-16T13:47:24;5.20;;;2.20;;
140;SDS011;65;48.778;9.160;2023-07-16T13:50:10;4.22;;;1.90;;
140;SDS011;65;48.778;9.160;2023-07-16T13:52:56;4.28;;;2.15;;
140;SDS011;65;48.778;9.160;2023-07-16T13:55:42;7.00;;;2.00;;
140;SDS011;65;48.778;9.160;2023-07-16T13:58:29;4.45;;;1.85;;
140;SDS011;65;48.778;9.160;2023-07-16T14:01:15;5.97;;;2.28;;
140;SDS011;65;48.778;9.160;2023-07-16T14:04:01;5.45;;;2.20;;
140;SDS011;65;48.778;9.160;2023-07-16T14:06:47;4.75;;;2.15;;
140;SDS011;65;48.778;9.160;2023-07-16T14:09:33;5.72;;;2.28;;
140;SDS011;65;48.778;9.160;2023-07-16T14:12:19;4.32;;;1.98;;
140;SDS011;65;48.778;9.160;2023-07-16T14:15:04;4.75;;;2.13;;
140;SDS011;65;48.778;9.160;2023-07-16T14:17:50;4.95;;;2.40;;
140;SDS011;65;48.778;9.160;2023-07-16T14:20:36;4.80;;;2.30;;
140;SDS011;65;48.778;9.160;2023-07-16T14:23:22;4.05;;;2.00;;
140;SDS011;65;48.778;9.160;2023-07-16T14:26:08;5.15;;;2.33;;
140;SDS011;65;48.778;9.160;2023-07-16T14:28:54;5.50;;;2.30;;
140;SDS011;65;48.778;9.160;2023-07-16T14:31:40;4.88;;;2.03;;
140;SDS011;65;48.778;9.160;2023-07-16T14:34:26;5.75;;;2.13;;
140;SDS011;65;48.778;9.160;2023-07-16T14:37:12;7.95;;;2.38;;
140;SDS011;65;48.778;9.160;2023-07-16T14:39:58;4.70;;;2.30;;
140;SDS011;65;48.778;9.160;2023-07-16T14:42:44;5.47;;;2.10;;
140;SDS011;65;48.778;9.160;2023-07-16T14:45:29;4.53;;;2.40;;
140;SDS011;65;48.778;9.160;2023-07-16T14:48:15;3.65;;;1.92;;
140;SDS011;65;48.778;9.160;2023-07-16T14:51:01;7.18;;;2.40;;
140;SDS011;65;48.778;9.160;2023-07-16T14:53:48;4.85;;;2.22;;
140;SDS011;65;48.778;9.160;2023-07-16T14:56:35;4.28;;;2.30;;
140;SDS011;65;48.778;9.160;2023-07-16T14:59:21;12.75;;;4.65;;
140;SDS011;65;48.778;9.160;2023-07-16T15:02:07;5.30;;;2.42;;
140;SDS011;65;48.778;9.160;2023-07-16T15:04:52;5.00;;;2.30;;
140;SDS011;65;48.778;9.160;2023-07-16T15:07:38;4.60;;;2.20;;
140;SDS011;65;48.778;9.160;2023-07-16T15:10:24;7.03;;;3.10;;
140;SDS011;65;48.778;9.160;2023-07-16T15:13:10;4.35;;;2.20;;
140;SDS011;65;48.778;9.160;2023-07-16T15:15:56;4.90;;;2.45;;
140;SDS011;65;48.778;9.160;2023-07-16T15:18:45;7.70;;;2.38;;
140;SDS011;65;48.778;9.160;2023-07-16T15:21:31;6.22;;;2.45;;
140;SDS011;65;48.778;9.160;2023-07-16T15:24:16;3.58;;;2.17;;
140;SDS011;65;48.778;9.160;2023-07-16T15:27:02;7.93;;;2.58;;
140;SDS011;65;48.778;9.160;2023-07-16T15:29:51;8.40;;;2.72;;
140;SDS011;65;48.778;9.160;2023-07-16T15:32:37;7.10;;;2.50;;
140;SDS011;65;48.778;9.160;2023-07-16T15:35:23;6.72;;;2.20;;
140;SDS011;65;48.778;9.160;2023-07-16T15:38:09;6.07;;;2.28;;
140;SDS011;65;48.778;9.160;2023-07-16T15:40:55;6.38;;;2.47;;
140;SDS011;65;48.778;9.160;2023-07-16T15:43:40;6.03;;;2.30;;
140;SDS011;65;48.778;9.160;2023-07-16T15:46:26;5.90;;;2.42;;
140;SDS011;65;48.778;9.160;2023-07-16T15:49:13;6.38;;;2.55;;
140;SDS011;65;48.778;9.160;2023-07-16T15:51:59;4.18;;;2.13;;
140;SDS011;65;48.778;9.160;2023-07-16T15:54:44;6.40;;;2.60;;
140;SDS011;65;48.778;9.160;2023-07-16T15:57:30;5.95;;;2.63;;
140;SDS011;65;48.778;9.160;2023-07-16T16:00:16;5.47;;;2.60;;
140;SDS011;65;48.778;9.160;2023-07-16T16:03:02;6.93;;;2.35;;
140;SDS011;65;48.778;9.160;2023-07-16T16:05:48;6.60;;;2.90;;
140;SDS011;65;48.778;9.160;2023-07-16T16:08:34;5.85;;;2.50;;
140;SDS011;65;48.778;9.160;2023-07-16T16:11:21;4.78;;;2.88;;
140;SDS011;65;48.778;9.160;2023-07-16T16:14:07;3.92;;;2.13;;
140;SDS011;65;48.778;9.160;2023-07-16T16:16:54;5.82;;;2.50;;
140;SDS011;65;48.778;9.160;2023-07-16T16:19:40;6.30;;;2.75;;
140;SDS011;65;48.778;9.160;2023-07-16T16:22:26;6.18;;;2.50;;
140;SDS011;65;48.778;9.160;2023-07-16T16:25:12;6.10;;;2.35;;
140;SDS011;65;48.778;9.160;2023-07-16T16:27:58;8.15;;;2.75;;
140;SDS011;65;48.778;9.160;2023-07-16T16:30:45;6.85;;;2.70;;
140;SDS011;65;48.778;9.160;2023-07-16T16:33:31;8.68;;;2.80;;
140;SDS011;65;48.778;9.160;2023-07-16T16:36:17;5.45;;;2.40;;
140;SDS011;65;48.778;9.160;2023-07-16T16:39:02;6.72;;;2.88;;
140;SDS011;65;48.778;9.160;2023-07-16T16:41:48;6.45;;;2.83;;
140;SDS011;65;48.778;9.160;2023-07-16T16:44:34;6.45;;;2.70;;
140;SDS011;65;48.778;9.160;2023-07-16T16:47:19;4.53;;;2.53;;
140;SDS011;65;48.778;9.160;2023-07-16T16:50:06;6.20;;;2.53;;
140;SDS011;65;48.778;9.160;2023-07-16T16:52:55;5.22;;;2.60;;
140;SDS011;65;48.778;9.160;2023-07-16T16:55:44;6.13;;;2.70;;
140;SDS011;65;48.778;9.160;2023-07-16T17:02:11;5.47;;;2.55;;
140;SDS011;65;48.778;9.160;2023-07-16T17:05:00;5.43;;;2.50;;
140;SDS011;65;48.778;9.160;2023-07-16T17:07:48;8.02;;;2.88;;
140;SDS011;65;48.778;9.160;2023-07-16T17:10:34;7.35;;;2.67;;
140;SDS011;65;48.778;9.160;2023-07-16T17:13:20;7.30;;;2.67;;
140;SDS011;65;48.778;9.160;2023-07-16T17:16:05;5.85;;;2.80;;
140;SDS011;65;48.778;9.160;2023-07-16T17:18:51;4.60;;;2.40;;
140;SDS011;65;48.778;9.160;2023-07-16T17:21:37;8.60;;;3.40;;
140;SDS011;65;48.778;9.160;2023-07-16T17:24:22;4.95;;;2.88;;
140;SDS011;65;48.778;9.160;2023-07-16T17:27:08;6.10;;;2.60;;
140;SDS011;65;48.778;9.160;2023-07-16T17:30:02;7.07;;;2.83;;
140;SDS011;65;48.778;9.160;2023-07-16T17:32:48;8.65;;;2.92;;
140;SDS011;65;48.778;9.160;2023-07-16T17:35:34;8.15;;;2.58;;
140;SDS011;65;48.778;9.160;2023-07-16T17:38:19;5.85;;;2.83;;
140;SDS011;65;48.778;9.160;2023-07-16T17:41:05;6.70;;;2.70;;
140;SDS011;65;48.778;9.160;2023-07-16T17:43:51;6.60;;;3.00;;
140;SDS011;65;48.778;9.160;2023-07-16T17:46:37;7.85;;;3.15;;
140;SDS011;65;48.778;9.160;2023-07-16T17:49:23;6.00;;;2.60;;
140;SDS011;65;48.778;9.160;2023-07-16T17:52:09;5.65;;;2.78;;
140;SDS011;65;48.778;9.160;2023-07-16T17:54:55;5.32;;;2.90;;
140;SDS011;65;48.778;9.160;2023-07-16T17:57:40;6.57;;;3.05;;
140;SDS011;65;48.778;9.160;2023-07-16T18:00:26;6.88;;;2.97;;
140;SDS011;65;48.778;9.160;2023-07-16T18:03:12;8.30;;;3.20;;
140;SDS011;65;48.778;9.160;2023-07-16T18:05:58;8.63;;;3.00;;
140;SDS011;65;48.778;9.160;2023-07-16T18:08:44;8.73;;;2.97;;
140;SDS011;65;48.778;9.160;2023-07-16T18:11:30;8.68;;;3.38;;
140;SDS011;65;48.778;9.160;2023-07-16T18:14:15;5.35;;;3.00;;
140;SDS011;65;48.778;9.160;2023-07-16T18:17:01;8.50;;;2.95;;
140;SDS011;65;48.778;9.160;2023-07-16T18:19:47;6.95;;;3.20;;